Time;durP1;ratioP1;P1;durP2;ratioP2;P2;SDS_P1;SDS_P2;PMS_P1;PMS_P2;Temp;Humidity;BMP_temperature;BMP_pressure;BME280_temperature;BME280_humidity;BME280_pressure;Samples;Min_cycle;Max_cycle;Signal;HPM_P1;HPM_P2
2022/04/13 00:01:39;;;;;;;7.10;5.50;;;13.80;99.90;;;;;;5054337;28;20049;-70
2022/04/13 00:04:06;;;;;;;7.90;5.20;;;13.70;99.90;;;;;;5055289;28;20091;-70
2022/04/13 00:06:38;;;;;;;9.95;5.90;;;13.70;99.90;;;;;;5053009;28;20077;-70
2022/04/13 00:09:06;;;;;;;7.43;5.43;;;13.70;99.90;;;;;;5054002;28;20076;-71
2022/04/13 00:11:32;;;;;;;7.47;5.45;;;13.60;99.90;;;;;;5053878;28;20570;-72
2022/04/13 00:13:59;;;;;;;8.52;6.03;;;13.60;99.90;;;;;;5053430;28;20052;-71
2022/04/13 00:16:26;;;;;;;8.85;5.78;;;13.60;99.90;;;;;;5054018;28;20084;-69
2022/04/13 00:18:54;;;;;;;9.50;5.50;;;13.60;99.90;;;;;;5053835;28;20041;-69
2022/04/13 00:21:21;;;;;;;10.25;5.80;;;13.60;99.90;;;;;;5054573;28;20091;-70
2022/04/13 00:23:48;;;;;;;9.63;5.72;;;13.60;99.90;;;;;;5055126;28;20080;-69
2022/04/13 00:26:15;;;;;;;9.18;6.03;;;13.50;99.90;;;;;;5037095;28;20119;-70
2022/04/13 00:28:42;;;;;;;8.02;5.30;;;13.50;99.90;;;;;;5033066;28;20088;-70
2022/04/13 00:31:09;;;;;;;8.48;5.60;;;13.50;99.90;;;;;;5035083;28;20486;-69
2022/04/13 00:33:35;;;;;;;7.82;5.80;;;13.50;99.90;;;;;;5034050;28;20140;-69
2022/04/13 00:36:04;;;;;;;9.75;6.00;;;13.40;99.90;;;;;;5034398;28;20128;-70
2022/04/13 00:38:31;;;;;;;10.50;6.25;;;13.40;99.90;;;;;;5034131;28;20132;-70
2022/04/13 00:40:58;;;;;;;8.88;5.47;;;13.40;99.90;;;;;;5032994;28;20084;-71
2022/04/13 00:43:25;;;;;;;9.20;5.95;;;13.40;99.90;;;;;;5033554;28;20160;-70
2022/04/13 00:45:52;;;;;;;9.60;6.15;;;13.30;99.90;;;;;;5034996;28;20402;-70
2022/04/13 00:48:28;;;;;;;9.57;5.65;;;13.30;99.90;;;;;;5033190;28;20085;-69
2022/04/13 00:50:55;;;;;;;8.07;6.50;;;13.30;99.90;;;;;;5035157;28;20409;-70
2022/04/13 00:53:25;;;;;;;9.38;6.43;;;13.20;99.90;;;;;;5033398;28;20053;-70
2022/04/13 00:55:55;;;;;;;7.67;6.10;;;13.20;99.90;;;;;;5032640;28;20144;-69
2022/04/13 00:58:23;;;;;;;11.02;5.78;;;13.20;99.90;;;;;;5034503;28;20053;-69
2022/04/13 01:00:50;;;;;;;9.57;5.80;;;13.10;99.90;;;;;;5033461;28;20061;-69
2022/04/13 01:03:20;;;;;;;10.60;6.65;;;13.10;99.90;;;;;;5032629;28;20140;-70
2022/04/13 01:05:47;;;;;;;10.30;6.20;;;13.10;99.90;;;;;;5033242;28;20061;-70
2022/04/13 01:08:17;;;;;;;8.65;5.93;;;13.10;99.90;;;;;;5034123;28;20115;-70
2022/04/13 01:10:47;;;;;;;7.72;6.10;;;13.00;99.90;;;;;;5046010;28;20056;-71
2022/04/13 01:13:14;;;;;;;6.93;5.55;;;12.90;99.90;;;;;;5054139;28;20076;-70
2022/04/13 01:15:41;;;;;;;8.82;6.07;;;12.90;99.90;;;;;;5052932;28;20107;-70
2022/04/13 01:18:09;;;;;;;8.85;5.53;;;12.80;99.90;;;;;;5053266;28;20128;-69
2022/04/13 01:20:39;;;;;;;14.05;6.40;;;12.80;99.90;;;;;;5054006;28;20084;-70
2022/04/13 01:23:07;;;;;;;9.50;6.28;;;12.70;99.90;;;;;;5053425;28;20052;-70
2022/04/13 01:25:34;;;;;;;11.35;6.55;;;12.70;99.90;;;;;;5052048;28;20104;-69
2022/04/13 01:28:01;;;;;;;9.05;6.40;;;12.70;99.90;;;;;;5053833;28;20409;-71
2022/04/13 01:30:28;;;;;;;12.85;7.43;;;12.60;99.90;;;;;;5053148;28;20566;-70
2022/04/13 01:32:55;;;;;;;9.95;6.50;;;12.60;99.90;;;;;;5053604;28;20083;-70
2022/04/13 01:35:23;;;;;;;8.75;6.25;;;12.60;99.90;;;;;;5053437;28;20081;-71
2022/04/13 01:37:50;;;;;;;11.65;8.07;;;12.60;99.90;;;;;;5051908;28;20102;-72
2022/04/13 01:40:18;;;;;;;10.18;6.82;;;12.50;99.90;;;;;;5050284;28;20124;-72
2022/04/13 01:42:47;;;;;;;10.20;6.50;;;12.50;99.90;;;;;;5053848;28;20099;-70
2022/04/13 01:45:19;;;;;;;12.55;7.10;;;12.50;99.90;;;;;;5052975;28;20049;-71
2022/04/13 01:47:47;;;;;;;12.38;7.00;;;12.50;99.90;;;;;;5051739;28;20475;-71
2022/04/13 01:50:14;;;;;;;9.00;6.43;;;12.40;99.90;;;;;;5052389;28;20370;-71
2022/04/13 01:52:40;;;;;;;11.50;6.78;;;12.40;99.90;;;;;;5051776;28;20080;-70
2022/04/13 01:55:08;;;;;;;17.42;7.68;;;12.40;99.90;;;;;;5034168;28;20155;-70
2022/04/13 01:57:36;;;;;;;9.73;7.65;;;12.40;99.90;;;;;;5032058;28;20060;-71
2022/04/13 02:00:04;;;;;;;9.70;6.45;;;12.40;99.90;;;;;;5032783;28;20394;-71
2022/04/13 02:02:31;;;;;;;13.02;7.57;;;12.40;99.90;;;;;;5032147;28;20092;-71
2022/04/13 02:04:59;;;;;;;10.88;7.22;;;12.30;99.90;;;;;;5031989;28;20080;-71
2022/04/13 02:07:27;;;;;;;11.07;7.38;;;12.30;99.90;;;;;;5031450;28;20059;-70
2022/04/13 02:09:54;;;;;;;10.00;7.65;;;12.30;99.90;;;;;;5049888;28;20059;-71
2022/04/13 02:12:20;;;;;;;10.82;7.63;;;12.30;99.90;;;;;;5051581;28;20057;-71
2022/04/13 02:14:49;;;;;;;12.68;7.63;;;12.30;99.90;;;;;;5051804;28;20106;-72
2022/04/13 02:17:16;;;;;;;11.88;8.50;;;12.20;99.90;;;;;;5052822;28;20533;-70
2022/04/13 02:19:44;;;;;;;13.68;8.02;;;12.30;99.90;;;;;;5052529;28;20088;-70
2022/04/13 02:22:11;;;;;;;13.68;7.82;;;12.30;99.90;;;;;;5034825;28;20053;-72
2022/04/13 02:24:39;;;;;;;9.88;6.88;;;12.30;99.90;;;;;;5031514;28;20085;-71
2022/04/13 02:27:07;;;;;;;11.00;7.90;;;12.20;99.90;;;;;;5031994;28;20100;-71
2022/04/13 02:29:34;;;;;;;15.23;8.13;;;12.20;99.90;;;;;;5032706;28;20075;-71
2022/04/13 02:32:02;;;;;;;15.95;8.07;;;12.20;99.90;;;;;;5031712;28;20100;-71
2022/04/13 02:34:29;;;;;;;15.15;8.52;;;12.20;99.90;;;;;;5031292;28;20088;-71
2022/04/13 02:36:56;;;;;;;15.63;7.75;;;12.20;99.90;;;;;;5031674;28;20480;-72
2022/04/13 02:39:23;;;;;;;10.95;7.93;;;12.20;99.90;;;;;;5050054;28;20385;-71
2022/04/13 02:41:50;;;;;;;12.27;8.23;;;12.20;99.90;;;;;;5051108;28;20080;-71
2022/04/13 02:44:17;;;;;;;12.90;9.00;;;12.10;99.90;;;;;;5051614;28;20552;-71
2022/04/13 02:46:44;;;;;;;13.55;8.00;;;12.10;99.90;;;;;;5052494;28;20083;-72
2022/04/13 02:49:12;;;;;;;15.70;10.10;;;12.10;99.90;;;;;;5050765;28;20053;-71
2022/04/13 02:51:39;;;;;;;12.73;9.63;;;12.10;99.90;;;;;;5051461;28;20509;-71
2022/04/13 02:54:06;;;;;;;13.32;9.55;;;12.10;99.90;;;;;;5034005;28;20456;-71
2022/04/13 02:56:33;;;;;;;17.73;10.52;;;12.10;99.90;;;;;;5031875;28;20084;-70
2022/04/13 02:58:59;;;;;;;19.48;10.35;;;12.10;99.90;;;;;;5033631;28;20092;-70
2022/04/13 03:01:26;;;;;;;15.13;10.10;;;12.00;99.90;;;;;;5035622;28;20060;-72
2022/04/13 03:03:53;;;;;;;15.95;10.15;;;12.00;99.90;;;;;;5035185;28;20126;-71
2022/04/13 03:06:22;;;;;;;23.73;11.40;;;12.10;99.90;;;;;;5036462;28;20089;-70
2022/04/13 03:08:48;;;;;;;16.52;11.13;;;12.10;99.90;;;;;;5053461;28;20336;-71
2022/04/13 03:11:15;;;;;;;14.98;10.57;;;12.00;99.90;;;;;;5056435;28;20092;-72
2022/04/13 03:13:42;;;;;;;16.38;10.45;;;12.00;99.90;;;;;;5055272;28;20212;-71
2022/04/13 03:16:09;;;;;;;17.85;11.38;;;12.00;99.90;;;;;;5055663;28;20095;-71
2022/04/13 03:18:36;;;;;;;18.88;10.45;;;12.00;99.90;;;;;;5056583;28;20472;-71
2022/04/13 03:21:03;;;;;;;14.48;10.05;;;12.00;99.90;;;;;;5056284;28;20127;-71
2022/04/13 03:23:31;;;;;;;18.35;10.57;;;12.00;99.90;;;;;;5050886;28;20081;-71
2022/04/13 03:25:58;;;;;;;19.77;11.00;;;11.90;99.90;;;;;;5054702;28;20092;-71
2022/04/13 03:28:25;;;;;;;18.98;11.25;;;11.90;99.90;;;;;;5056181;28;20095;-71
2022/04/13 03:30:53;;;;;;;19.17;11.18;;;11.90;99.90;;;;;;5054491;28;20119;-70
2022/04/13 03:33:20;;;;;;;19.70;10.77;;;11.90;99.90;;;;;;5056213;28;20045;-70
2022/04/13 03:35:47;;;;;;;16.77;12.07;;;11.90;99.90;;;;;;5055882;28;20135;-70
2022/04/13 03:38:13;;;;;;;17.45;11.20;;;11.80;99.90;;;;;;5037152;28;20088;-71
2022/04/13 03:40:42;;;;;;;17.50;11.45;;;11.80;99.90;;;;;;5036175;28;20089;-70
2022/04/13 03:43:08;;;;;;;16.05;10.88;;;11.80;99.90;;;;;;5035391;28;20132;-70
2022/04/13 03:45:36;;;;;;;18.33;11.80;;;11.70;99.90;;;;;;5035253;28;20554;-70
2022/04/13 03:48:03;;;;;;;16.67;10.75;;;11.70;99.90;;;;;;5035937;28;20412;-70
2022/04/13 03:50:30;;;;;;;19.83;11.90;;;11.70;99.90;;;;;;5035757;28;20132;-71
2022/04/13 03:52:56;;;;;;;19.60;12.88;;;11.70;99.90;;;;;;5051421;28;20566;-71
2022/04/13 03:55:23;;;;;;;16.77;10.43;;;11.70;99.90;;;;;;5055792;28;20473;-70
2022/04/13 03:57:52;;;;;;;18.65;12.25;;;11.60;99.90;;;;;;5054774;28;20076;-70
2022/04/13 04:00:19;;;;;;;15.82;11.30;;;11.60;99.90;;;;;;5055556;28;20080;-70
2022/04/13 04:02:47;;;;;;;18.67;12.27;;;11.60;99.90;;;;;;5055601;28;20471;-70
2022/04/13 04:05:13;;;;;;;21.17;12.00;;;11.60;99.90;;;;;;5054721;28;20412;-71
2022/04/13 04:07:41;;;;;;;17.65;10.68;;;11.50;99.90;;;;;;5037214;28;20100;-71
2022/04/13 04:10:09;;;;;;;19.23;11.75;;;11.50;99.90;;;;;;5044141;28;20067;-71
2022/04/13 04:12:39;;;;;;;19.30;11.70;;;11.50;99.90;;;;;;5052599;28;20556;-71
2022/04/13 04:15:09;;;;;;;20.45;13.48;;;11.50;99.90;;;;;;5053217;28;20128;-71
2022/04/13 04:17:36;;;;;;;22.05;12.80;;;11.50;99.90;;;;;;5054033;28;20045;-71
2022/04/13 04:20:04;;;;;;;20.55;12.60;;;11.40;99.90;;;;;;5050953;28;20133;-71
2022/04/13 04:22:31;;;;;;;17.63;12.77;;;11.50;99.90;;;;;;5052895;28;20463;-71
2022/04/13 04:25:01;;;;;;;21.45;12.35;;;11.50;99.90;;;;;;5053258;28;20060;-71
2022/04/13 04:27:28;;;;;;;21.65;12.95;;;11.50;99.90;;;;;;5053114;28;20092;-71
2022/04/13 04:29:55;;;;;;;21.85;13.95;;;11.50;99.90;;;;;;5052853;28;20571;-71
2022/04/13 04:32:23;;;;;;;22.38;12.82;;;11.50;99.90;;;;;;5057024;28;20046;-71
2022/04/13 04:34:50;;;;;;;20.38;12.32;;;11.40;99.90;;;;;;5057150;28;20136;-72
2022/04/13 04:37:17;;;;;;;17.83;13.00;;;11.40;99.90;;;;;;5055737;28;20045;-71
2022/04/13 04:39:44;;;;;;;15.45;12.07;;;11.40;99.90;;;;;;5052902;28;20081;-71
2022/04/13 04:42:11;;;;;;;20.75;13.25;;;11.50;99.90;;;;;;5052274;28;20049;-71
2022/04/13 04:44:38;;;;;;;19.77;12.68;;;11.40;99.90;;;;;;5051479;28;20141;-71
2022/04/13 04:47:05;;;;;;;21.42;13.65;;;11.50;99.90;;;;;;5057109;28;20140;-72
2022/04/13 04:49:33;;;;;;;18.35;12.52;;;11.50;99.90;;;;;;5050798;28;20071;-73
2022/04/13 04:52:00;;;;;;;19.80;12.63;;;11.50;99.90;;;;;;5050311;28;20139;-73
2022/04/13 04:54:27;;;;;;;25.58;13.25;;;11.50;99.90;;;;;;5052109;28;20512;-73
2022/04/13 04:56:54;;;;;;;18.42;12.45;;;11.50;99.90;;;;;;5050966;28;20049;-71
2022/04/13 04:59:20;;;;;;;23.17;13.00;;;11.50;99.90;;;;;;5052928;28;20123;-71
2022/04/13 05:01:47;;;;;;;17.58;11.93;;;11.50;99.90;;;;;;5052301;28;20323;-72
2022/04/13 05:04:14;;;;;;;20.60;12.50;;;11.50;99.90;;;;;;5061167;28;20561;-73
2022/04/13 05:06:42;;;;;;;20.90;13.05;;;11.60;99.90;;;;;;5051234;28;20420;-73
2022/04/13 05:09:09;;;;;;;20.23;13.35;;;11.60;99.90;;;;;;5051674;28;20132;-72
2022/04/13 05:11:36;;;;;;;17.15;12.77;;;11.70;99.90;;;;;;5053437;28;20401;-72
2022/04/13 05:14:03;;;;;;;25.40;13.48;;;11.70;99.90;;;;;;5051173;28;20135;-72
2022/04/13 05:16:30;;;;;;;22.52;13.05;;;11.70;99.90;;;;;;5051019;28;20053;-74
2022/04/13 05:18:56;;;;;;;21.63;12.38;;;11.80;99.90;;;;;;5042586;28;20052;-73
2022/04/13 05:21:23;;;;;;;19.67;12.77;;;11.80;99.90;;;;;;5068942;28;20111;-73
2022/04/13 05:23:51;;;;;;;21.67;12.98;;;11.90;99.90;;;;;;5051740;28;20504;-74
2022/04/13 05:26:18;;;;;;;22.30;13.23;;;11.90;99.90;;;;;;5050684;28;20053;-72
2022/04/13 05:28:45;;;;;;;20.08;13.27;;;12.00;99.90;;;;;;5050182;28;20045;-73
2022/04/13 05:31:12;;;;;;;18.35;12.27;;;12.00;99.90;;;;;;5057381;28;20457;-73
2022/04/13 05:33:39;;;;;;;26.70;13.27;;;12.00;99.90;;;;;;5051386;28;20071;-73
2022/04/13 05:36:07;;;;;;;24.85;14.10;;;12.00;99.90;;;;;;5060426;28;20128;-73
2022/04/13 05:38:34;;;;;;;24.48;13.32;;;12.10;99.90;;;;;;5051013;28;20084;-72
2022/04/13 05:41:02;;;;;;;19.23;12.35;;;12.10;99.90;;;;;;5050606;28;20124;-72
2022/04/13 05:43:31;;;;;;;22.35;13.68;;;12.10;99.90;;;;;;5059532;28;20076;-73
2022/04/13 05:45:58;;;;;;;23.35;13.77;;;12.10;99.90;;;;;;5054648;28;20049;-73
2022/04/13 05:48:25;;;;;;;20.45;13.55;;;12.10;99.90;;;;;;5050364;28;20083;-72
2022/04/13 05:50:52;;;;;;;20.25;12.88;;;12.10;99.90;;;;;;5050199;28;20142;-72
2022/04/13 05:53:19;;;;;;;24.02;12.50;;;12.10;99.90;;;;;;5052707;28;20455;-72
2022/04/13 05:55:46;;;;;;;21.02;13.13;;;12.20;99.90;;;;;;5050769;28;20469;-72
2022/04/13 05:58:14;;;;;;;18.27;13.13;;;12.20;99.90;;;;;;5045537;28;20053;-72
2022/04/13 06:00:41;;;;;;;19.55;13.40;;;12.30;99.90;;;;;;5032801;28;20072;-72
2022/04/13 06:03:09;;;;;;;18.85;12.57;;;12.40;99.90;;;;;;5065298;28;20057;-71
2022/04/13 06:05:38;;;;;;;20.17;12.18;;;12.50;99.90;;;;;;5035010;28;20060;-72
2022/04/13 06:08:06;;;;;;;20.00;13.07;;;12.70;99.90;;;;;;5037609;28;20053;-72
2022/04/13 06:10:32;;;;;;;18.50;13.27;;;12.80;99.90;;;;;;5035609;28;20132;-72
2022/04/13 06:12:59;;;;;;;21.00;13.00;;;12.90;99.90;;;;;;5029860;28;20144;-72
2022/04/13 06:15:29;;;;;;;23.73;12.82;;;12.90;99.90;;;;;;5036183;28;20508;-72
2022/04/13 06:17:56;;;;;;;21.85;14.35;;;12.90;99.90;;;;;;5050973;28;20045;-72
2022/04/13 06:20:23;;;;;;;22.13;13.73;;;12.90;99.90;;;;;;5051324;28;20114;-73
2022/04/13 06:22:49;;;;;;;18.58;14.25;;;12.90;99.90;;;;;;5030977;28;20133;-73
2022/04/13 06:25:16;;;;;;;24.08;13.35;;;13.00;99.90;;;;;;5031008;28;20053;-72
2022/04/13 06:27:44;;;;;;;23.30;13.35;;;13.00;99.90;;;;;;5043355;28;20065;-72
2022/04/13 06:30:12;;;;;;;21.25;13.35;;;13.10;99.90;;;;;;5050194;28;20044;-72
2022/04/13 06:32:42;;;;;;;22.70;13.98;;;13.10;99.90;;;;;;5047111;28;20134;-73
2022/04/13 06:35:11;;;;;;;23.70;14.37;;;13.20;99.90;;;;;;5048284;28;20118;-73
2022/04/13 06:37:39;;;;;;;27.33;13.70;;;12.60;99.90;;;;;;5030708;28;20057;-75
2022/04/13 06:40:08;;;;;;;23.05;13.88;;;13.40;99.90;;;;;;5047321;28;20056;-72
2022/04/13 06:42:36;;;;;;;22.38;15.30;;;13.60;99.90;;;;;;5037705;28;20053;-72
2022/04/13 06:45:04;;;;;;;24.13;13.88;;;13.80;99.90;;;;;;5049008;28;20401;-73
2022/04/13 06:47:31;;;;;;;20.48;13.52;;;14.10;99.90;;;;;;5030569;28;20107;-72
2022/04/13 06:49:59;;;;;;;22.83;14.15;;;14.40;99.90;;;;;;5043356;28;20053;-74
2022/04/13 06:52:26;;;;;;;20.63;14.38;;;15.10;99.90;;;;;;5031156;28;20172;-74
2022/04/13 06:54:53;;;;;;;18.42;12.75;;;15.60;99.90;;;;;;5029287;28;20136;-73
2022/04/13 06:57:19;;;;;;;18.40;13.75;;;15.70;99.90;;;;;;5038935;28;20049;-74
2022/04/13 06:59:46;;;;;;;27.35;12.50;;;15.70;99.90;;;;;;5051043;28;20079;-74
2022/04/13 07:02:13;;;;;;;17.85;12.48;;;15.80;99.90;;;;;;5050716;28;20096;-74
2022/04/13 07:04:41;;;;;;;18.00;11.90;;;15.70;99.90;;;;;;5049673;28;20143;-74
2022/04/13 07:07:09;;;;;;;20.27;12.43;;;15.70;99.90;;;;;;5046170;28;20087;-73
2022/04/13 07:09:36;;;;;;;21.98;12.55;;;15.60;99.90;;;;;;5032519;28;20046;-74
2022/04/13 07:12:03;;;;;;;20.60;11.73;;;15.50;99.90;;;;;;5034708;28;20150;-74
2022/04/13 07:14:29;;;;;;;19.80;13.32;;;15.40;99.90;;;;;;5043647;28;20140;-74
2022/04/13 07:16:56;;;;;;;16.42;11.68;;;15.40;99.90;;;;;;5040746;28;20101;-74
2022/04/13 07:19:23;;;;;;;20.98;12.10;;;16.00;99.90;;;;;;5047444;28;20045;-73
2022/04/13 07:21:50;;;;;;;18.23;11.27;;;16.80;99.90;;;;;;5044046;28;20064;-74
2022/04/13 07:24:18;;;;;;;18.50;10.88;;;17.80;99.90;;;;;;5031652;28;20089;-74
2022/04/13 07:26:45;;;;;;;16.23;11.02;;;18.40;99.90;;;;;;5045629;28;20143;-74
2022/04/13 07:29:12;;;;;;;19.08;11.77;;;19.30;99.90;;;;;;5050177;28;20059;-74
2022/04/13 07:31:38;;;;;;;13.90;9.77;;;19.70;99.90;;;;;;5046940;28;20692;-74
2022/04/13 07:34:05;;;;;;;15.93;9.77;;;20.20;99.90;;;;;;5037355;28;20057;-74
2022/04/13 07:36:32;;;;;;;17.92;9.52;;;20.50;99.90;;;;;;5049378;28;20139;-74
2022/04/13 07:38:59;;;;;;;16.50;9.02;;;20.60;99.90;;;;;;5033115;28;20575;-74
2022/04/13 07:41:27;;;;;;;14.57;9.70;;;20.30;99.90;;;;;;5035807;28;20725;-75
2022/04/13 07:43:55;;;;;;;13.02;9.48;;;19.70;99.90;;;;;;5030330;28;20057;-74
2022/04/13 07:46:22;;;;;;;18.13;9.27;;;19.00;99.90;;;;;;5051312;28;20068;-75
2022/04/13 07:48:49;;;;;;;15.60;9.93;;;18.40;99.90;;;;;;5052672;28;20048;-75
2022/04/13 07:51:16;;;;;;;14.13;9.48;;;17.80;99.90;;;;;;5051331;28;20194;-74
2022/04/13 07:53:43;;;;;;;15.98;10.25;;;17.50;99.90;;;;;;5039935;28;20055;-75
2022/04/13 07:56:09;;;;;;;16.27;9.35;;;17.20;99.90;;;;;;5049281;28;20068;-74
2022/04/13 07:58:38;;;;;;;16.27;10.55;;;17.00;99.90;;;;;;5052538;28;20092;-74
2022/04/13 08:01:05;;;;;;;17.35;9.38;;;16.80;99.90;;;;;;5053316;28;20107;-74
2022/04/13 08:03:32;;;;;;;20.58;10.50;;;16.80;99.90;;;;;;5050795;28;20463;-73
2022/04/13 08:05:59;;;;;;;16.58;10.05;;;16.90;99.90;;;;;;5034414;28;20060;-74
2022/04/13 08:08:26;;;;;;;13.07;9.55;;;16.90;99.90;;;;;;5044335;28;20103;-73
2022/04/13 08:10:53;;;;;;;14.82;9.80;;;17.00;99.90;;;;;;5052694;28;20045;-74
2022/04/13 08:13:19;;;;;;;15.88;9.00;;;16.90;99.90;;;;;;5052256;28;20088;-74
2022/04/13 08:15:48;;;;;;;13.70;9.05;;;16.90;99.90;;;;;;5048886;28;20069;-75
2022/04/13 08:18:15;;;;;;;18.65;9.93;;;16.80;99.90;;;;;;5033479;28;20057;-75
2022/04/13 08:20:41;;;;;;;13.75;9.43;;;16.90;99.90;;;;;;5053799;28;20409;-75
2022/04/13 08:23:08;;;;;;;16.85;9.20;;;17.10;99.90;;;;;;5046029;28;20058;-74
2022/04/13 08:25:35;;;;;;;11.98;8.70;;;17.40;99.90;;;;;;5033489;28;20368;-72
2022/04/13 08:28:02;;;;;;;15.75;8.95;;;18.20;99.90;;;;;;5040458;28;20053;-74
2022/04/13 08:30:29;;;;;;;12.75;8.63;;;18.90;99.90;;;;;;5049497;28;20057;-74
2022/04/13 08:32:57;;;;;;;14.02;9.23;;;19.30;99.90;;;;;;5052050;28;20057;-74
2022/04/13 08:35:24;;;;;;;10.88;8.10;;;19.20;99.90;;;;;;5032972;28;20092;-74
2022/04/13 08:37:51;;;;;;;17.10;9.15;;;19.20;99.90;;;;;;5032914;28;20156;-75
2022/04/13 08:40:19;;;;;;;13.80;8.00;;;19.70;99.90;;;;;;5034258;28;20107;-73
2022/04/13 08:42:50;;;;;;;15.40;8.95;;;20.70;99.90;;;;;;5053926;28;20055;-72
2022/04/13 08:45:22;;;;;;;14.25;8.15;;;21.10;99.90;;;;;;5046836;28;20068;-72
2022/04/13 08:47:50;;;;;;;11.77;8.20;;;21.30;99.90;;;;;;5037693;28;20080;-73
2022/04/13 08:50:19;;;;;;;12.00;7.65;;;21.90;99.90;;;;;;5037134;28;20073;-73
2022/04/13 08:52:51;;;;;;;12.25;7.93;;;22.50;99.90;;;;;;5033431;28;20092;-73
2022/04/13 08:55:20;;;;;;;12.73;7.80;;;23.20;99.70;;;;;;5042255;28;20049;-73
2022/04/13 08:57:48;;;;;;;11.70;7.38;;;23.30;98.70;;;;;;5050176;28;20049;-74
2022/04/13 09:00:17;;;;;;;11.27;6.13;;;23.70;98.30;;;;;;5042069;28;20448;-74
2022/04/13 09:03:12;;;;;;;14.60;7.03;;;24.20;97.70;;;;;;5032085;28;20065;-75
2022/04/13 09:05:43;;;;;;;9.85;6.93;;;24.00;96.00;;;;;;5046814;28;20103;-75
2022/04/13 09:08:17;;;;;;;11.27;6.50;;;23.50;96.40;;;;;;5048609;28;20068;-75
2022/04/13 09:10:44;;;;;;;10.57;6.18;;;23.00;97.00;;;;;;5037371;28;20477;-74
2022/04/13 09:13:12;;;;;;;11.27;6.68;;;23.00;97.30;;;;;;5032579;28;20103;-74
2022/04/13 09:15:40;;;;;;;12.48;6.35;;;23.10;97.10;;;;;;5036164;28;20053;-74
2022/04/13 09:18:08;;;;;;;14.68;5.80;;;22.90;97.10;;;;;;5045984;28;20049;-74
2022/04/13 09:20:35;;;;;;;9.73;6.30;;;23.10;97.00;;;;;;5053207;28;20053;-74
2022/04/13 09:23:05;;;;;;;11.35;5.97;;;23.20;96.60;;;;;;5046708;28;20049;-74
2022/04/13 09:25:33;;;;;;;8.27;5.93;;;23.70;95.90;;;;;;5034778;28;20387;-74
2022/04/13 09:28:01;;;;;;;10.70;5.65;;;24.10;95.00;;;;;;5040580;28;20115;-74
2022/04/13 09:30:29;;;;;;;10.68;5.38;;;24.60;94.80;;;;;;5050317;28;20049;-75
2022/04/13 09:32:56;;;;;;;11.90;5.18;;;25.20;94.30;;;;;;5049486;28;20095;-75
2022/04/13 09:35:23;;;;;;;11.13;5.13;;;25.30;93.30;;;;;;5048586;28;20084;-75
2022/04/13 09:37:50;;;;;;;7.65;4.90;;;25.60;93.00;;;;;;5048110;28;20500;-75
2022/04/13 09:40:30;;;;;;;10.02;5.35;;;26.10;92.90;;;;;;5042225;28;20049;-74
2022/04/13 09:43:05;;;;;;;8.45;5.78;;;26.30;92.10;;;;;;5032052;28;20092;-74
2022/04/13 09:45:34;;;;;;;8.18;4.38;;;26.40;91.30;;;;;;5052593;28;20084;-74
2022/04/13 09:48:04;;;;;;;8.10;4.60;;;26.60;90.70;;;;;;5038308;28;20472;-75
2022/04/13 09:50:31;;;;;;;7.70;4.55;;;26.20;90.40;;;;;;5030122;28;20387;-74
2022/04/13 09:52:58;;;;;;;9.57;5.03;;;26.40;90.20;;;;;;5046672;28;20508;-74
2022/04/13 09:55:26;;;;;;;7.63;4.65;;;26.60;90.00;;;;;;5049544;28;20049;-74
2022/04/13 09:58:04;;;;;;;6.95;4.10;;;26.50;89.90;;;;;;5050604;28;20088;-75
2022/04/13 10:00:31;;;;;;;8.32;4.32;;;26.90;86.70;;;;;;5031190;28;20147;-75
2022/04/13 10:03:09;;;;;;;14.57;4.30;;;26.90;87.70;;;;;;5041481;28;20053;-74
2022/04/13 10:05:36;;;;;;;9.85;4.65;;;27.00;86.30;;;;;;5044326;28;20134;-74
2022/04/13 10:08:04;;;;;;;6.55;3.58;;;27.40;86.50;;;;;;5042988;28;20136;-75
2022/04/13 10:10:32;;;;;;;7.68;4.15;;;27.20;85.50;;;;;;5043654;28;20124;-74
2022/04/13 10:13:00;;;;;;;5.25;3.45;;;27.10;85.10;;;;;;5049727;28;20412;-74
2022/04/13 10:15:27;;;;;;;7.53;3.58;;;26.90;84.30;;;;;;5050452;28;20123;-74
2022/04/13 10:17:59;;;;;;;5.35;3.65;;;26.50;84.20;;;;;;5044789;28;20497;-73
2022/04/13 10:20:40;;;;;;;5.18;3.58;;;26.70;83.40;;;;;;5033947;28;20071;-74
2022/04/13 10:23:07;;;;;;;6.45;3.65;;;26.50;83.80;;;;;;5035392;28;20092;-74
2022/04/13 10:25:34;;;;;;;6.22;3.60;;;27.00;83.60;;;;;;5038681;28;20575;-75
2022/04/13 10:28:03;;;;;;;8.05;3.45;;;27.60;82.90;;;;;;5035389;28;20080;-73
2022/04/13 10:30:33;;;;;;;5.38;3.28;;;27.40;81.60;;;;;;5034761;28;20057;-74
2022/04/13 10:33:02;;;;;;;6.90;3.90;;;27.00;81.80;;;;;;5029586;28;20088;-74
2022/04/13 10:35:30;;;;;;;6.72;3.88;;;26.60;82.50;;;;;;5030057;28;20084;-74
2022/04/13 10:37:57;;;;;;;5.18;3.08;;;26.70;82.40;;;;;;5041880;28;20072;-75
2022/04/13 10:40:25;;;;;;;6.43;3.92;;;26.80;82.70;;;;;;5047080;28;20127;-75
2022/04/13 10:42:53;;;;;;;8.20;4.00;;;27.20;81.90;;;;;;5047406;28;20169;-75
2022/04/13 10:45:23;;;;;;;8.77;3.80;;;27.80;80.80;;;;;;5036008;28;20111;-74
2022/04/13 10:47:56;;;;;;;8.65;3.55;;;27.00;80.00;;;;;;5036936;28;20045;-74
2022/04/13 10:50:31;;;;;;;4.90;3.20;;;26.40;80.50;;;;;;5038555;28;20061;-74
2022/04/13 10:53:00;;;;;;;6.05;3.70;;;26.30;80.40;;;;;;5041568;28;20049;-74
2022/04/13 10:55:30;;;;;;;7.07;4.10;;;26.20;81.90;;;;;;5039597;28;20081;-74
2022/04/13 10:58:00;;;;;;;;;;;26.50;81.60;;;;;;5050098;28;20088;-74
2022/04/13 11:00:32;;;;;;;7.53;3.50;;;26.40;81.00;;;;;;5046299;28;20005;-74
2022/04/13 11:03:02;;;;;;;6.32;3.25;;;26.30;80.00;;;;;;5052373;28;20057;-74
2022/04/13 11:05:30;;;;;;;7.75;2.78;;;26.30;80.00;;;;;;5051525;28;20059;-74
2022/04/13 11:08:06;;;;;;;7.85;3.08;;;26.70;80.00;;;;;;5044066;28;20119;-74
2022/04/13 11:10:35;;;;;;;7.53;2.58;;;26.70;79.60;;;;;;5049787;28;20095;-75
2022/04/13 11:13:02;;;;;;;12.40;3.33;;;26.50;78.50;;;;;;5046257;28;20132;-74
2022/04/13 11:15:43;;;;;;;11.55;3.72;;;25.90;79.90;;;;;;5046027;28;20095;-74
2022/04/13 11:18:11;;;;;;;6.63;3.67;;;25.40;80.70;;;;;;5046941;28;20064;-72
2022/04/13 11:21:00;;;;;;;8.70;4.00;;;24.90;81.40;;;;;;5066988;28;20106;-74
2022/04/13 11:23:47;;;;;;;9.02;3.58;;;24.40;82.40;;;;;;5050192;28;20520;-74
2022/04/13 11:26:15;;;;;;;9.77;5.03;;;23.60;84.60;;;;;;5051808;28;20056;-75
2022/04/13 11:28:42;;;;;;;11.13;4.65;;;23.30;85.40;;;;;;5051583;28;20404;-74
2022/04/13 11:31:11;;;;;;;15.93;4.32;;;22.80;86.30;;;;;;5050816;28;20049;-73
2022/04/13 11:33:50;;;;;;;11.65;4.45;;;22.70;87.20;;;;;;5047408;28;20524;-74
2022/04/13 11:36:17;;;;;;;8.85;4.38;;;22.70;87.90;;;;;;5051349;28;20079;-74
2022/04/13 11:38:49;;;;;;;9.10;5.07;;;22.10;88.80;;;;;;5052743;28;20088;-74
2022/04/13 11:41:16;;;;;;;11.85;5.50;;;21.80;89.80;;;;;;5052120;28;20053;-74
2022/04/13 11:43:43;;;;;;;11.20;4.97;;;21.40;90.60;;;;;;5051371;28;20083;-74
2022/04/13 11:46:35;;;;;;;9.70;4.65;;;21.20;91.10;;;;;;5049690;28;20095;-74
2022/04/13 11:49:02;;;;;;;15.02;3.75;;;20.90;91.40;;;;;;5052156;28;20053;-75
2022/04/13 11:51:30;;;;;;;9.15;3.17;;;20.70;91.20;;;;;;5052841;28;20439;-74
2022/04/13 11:54:06;;;;;;;7.55;2.00;;;20.40;90.70;;;;;;5051785;28;20067;-74
2022/04/13 11:56:34;;;;;;;10.68;2.55;;;20.00;91.00;;;;;;5051512;28;20569;-74
2022/04/13 11:59:01;;;;;;;12.75;2.97;;;20.10;91.30;;;;;;5053893;28;20084;-74
2022/04/13 12:01:29;;;;;;;23.85;4.15;;;20.00;91.50;;;;;;5051645;28;20114;-74
2022/04/13 12:03:58;;;;;;;8.48;3.33;;;20.00;91.90;;;;;;5048797;28;20075;-73
2022/04/13 12:06:26;;;;;;;9.20;3.22;;;20.00;92.10;;;;;;5043170;28;20049;-73
2022/04/13 12:08:55;;;;;;;8.20;3.88;;;19.80;92.60;;;;;;5043502;28;20114;-71
2022/04/13 12:11:24;;;;;;;8.70;3.92;;;19.60;92.90;;;;;;5047262;28;20245;-74
2022/04/13 12:13:53;;;;;;;8.73;3.85;;;19.50;93.30;;;;;;5051120;28;20053;-74
2022/04/13 12:16:22;;;;;;;6.50;3.50;;;19.50;93.50;;;;;;5046717;28;20092;-73
2022/04/13 12:18:52;;;;;;;9.70;3.90;;;19.50;93.40;;;;;;5052247;28;20481;-73
2022/04/13 12:21:22;;;;;;;9.07;3.75;;;19.60;93.70;;;;;;5048730;28;20091;-74
2022/04/13 12:23:50;;;;;;;8.25;3.47;;;19.50;93.70;;;;;;5051432;28;20555;-74
2022/04/13 12:26:17;;;;;;;8.80;2.80;;;19.50;93.80;;;;;;5040947;28;20555;-74
2022/04/13 12:28:44;;;;;;;8.90;3.25;;;19.30;93.50;;;;;;5044156;28;20110;-73
2022/04/13 12:31:12;;;;;;;8.07;3.72;;;19.30;93.80;;;;;;5032986;28;20049;-74
2022/04/13 12:33:41;;;;;;;11.98;4.13;;;19.10;94.40;;;;;;5038061;28;20088;-73
2022/04/13 12:36:10;;;;;;;12.73;5.15;;;19.20;94.60;;;;;;5053044;28;20521;-73
2022/04/13 12:38:39;;;;;;;9.20;5.23;;;19.30;94.80;;;;;;5053076;28;20098;-74
2022/04/13 12:41:09;;;;;;;9.85;5.00;;;19.20;95.00;;;;;;5043348;28;20288;-73